Time;durP1;ratioP1;P1;durP2;ratioP2;P2;SDS_P1;SDS_P2;PMS_P1;PMS_P2;Temp;Humidity;BMP_temperature;BMP_pressure;BME280_temperature;BME280_humidity;BME280_pressure;Samples;Min_cycle;Max_cycle;Signal;HPM_P1;HPM_P2
2021/09/19 00:00:15;;;;;;;0.00;0.00;;;17.80;91.10;;;;;;5033654;28;20041;-74
2021/09/19 00:02:41;;;;;;;0.00;0.00;;;17.80;91.10;;;;;;5033869;28;20025;-74
2021/09/19 00:05:09;;;;;;;0.00;0.00;;;17.80;91.10;;;;;;5033864;28;20076;-73
2021/09/19 00:07:35;;;;;;;0.00;0.00;;;17.70;91.10;;;;;;5034040;28;20040;-74
2021/09/19 00:10:02;;;;;;;0.00;0.00;;;17.70;91.10;;;;;;5033842;28;20476;-73
2021/09/19 00:12:27;;;;;;;0.00;0.00;;;17.60;91.20;;;;;;5033615;28;20036;-74
2021/09/19 00:14:53;;;;;;;0.00;0.00;;;17.60;91.40;;;;;;5034087;28;20112;-74
2021/09/19 00:17:19;;;;;;;0.00;0.00;;;17.50;91.50;;;;;;5034003;28;20060;-74
2021/09/19 00:19:45;;;;;;;0.00;0.00;;;17.50;91.60;;;;;;5033125;28;20029;-74
2021/09/19 00:22:11;;;;;;;0.00;0.00;;;17.40;91.70;;;;;;5033502;28;20057;-74
2021/09/19 00:24:37;;;;;;;0.00;0.00;;;17.30;91.70;;;;;;5033209;28;20068;-74
2021/09/19 00:27:03;;;;;;;0.00;0.00;;;17.30;91.90;;;;;;5033329;28;20061;-74
2021/09/19 00:29:29;;;;;;;0.00;0.00;;;17.30;92.00;;;;;;5033171;28;20025;-74
2021/09/19 00:31:56;;;;;;;0.00;0.00;;;17.30;92.10;;;;;;5031952;28;20033;-74
2021/09/19 00:34:21;;;;;;;0.00;0.00;;;17.20;92.00;;;;;;5037400;28;20021;-74
2021/09/19 00:36:48;;;;;;;0.00;0.00;;;17.20;92.00;;;;;;5036917;28;20022;-74
2021/09/19 00:39:13;;;;;;;0.00;0.00;;;17.10;92.20;;;;;;5036863;28;20098;-74
2021/09/19 00:41:39;;;;;;;0.00;0.00;;;17.10;92.10;;;;;;5052240;28;20104;-74
2021/09/19 00:44:07;;;;;;;0.00;0.00;;;17.10;92.20;;;;;;5037091;28;20473;-74
2021/09/19 00:46:33;;;;;;;0.00;0.00;;;17.00;92.30;;;;;;5036804;28;20484;-74
2021/09/19 00:48:59;;;;;;;0.00;0.00;;;17.00;92.50;;;;;;5035635;28;20099;-75
2021/09/19 00:51:27;;;;;;;0.00;0.00;;;17.00;92.60;;;;;;5036717;28;20051;-75
2021/09/19 00:53:55;;;;;;;0.00;0.00;;;17.00;92.60;;;;;;5037118;28;20022;-74
2021/09/19 00:56:24;;;;;;;0.00;0.00;;;16.90;92.60;;;;;;5036503;28;20051;-74
2021/09/19 00:58:51;;;;;;;0.00;0.00;;;16.90;92.50;;;;;;5036812;28;20033;-73
2021/09/19 01:01:18;;;;;;;0.00;0.00;;;16.90;92.40;;;;;;5035455;28;20034;-74
2021/09/19 01:03:45;;;;;;;0.00;0.00;;;16.80;92.40;;;;;;5037392;28;20042;-74
2021/09/19 01:06:12;;;;;;;0.00;0.00;;;16.80;92.50;;;;;;5035359;28;20032;-75
2021/09/19 01:08:42;;;;;;;0.00;0.00;;;16.80;92.50;;;;;;5036464;28;20038;-73
2021/09/19 01:11:14;;;;;;;0.00;0.00;;;16.70;92.50;;;;;;5036561;28;20370;-73
2021/09/19 01:13:42;;;;;;;0.00;0.00;;;16.80;92.50;;;;;;5037280;28;20113;-74
2021/09/19 01:16:09;;;;;;;0.00;0.00;;;16.70;92.50;;;;;;5036485;28;20124;-74
2021/09/19 01:18:37;;;;;;;0.00;0.00;;;16.60;92.60;;;;;;5036131;28;20052;-73
2021/09/19 01:21:02;;;;;;;0.00;0.00;;;16.60;92.70;;;;;;5035081;28;20030;-74
2021/09/19 01:23:30;;;;;;;0.00;0.00;;;16.60;92.70;;;;;;5036339;28;20108;-74
2021/09/19 01:25:55;;;;;;;0.00;0.00;;;16.50;92.70;;;;;;5052120;28;20029;-74
2021/09/19 01:28:21;;;;;;;0.00;0.00;;;16.50;92.90;;;;;;5035861;28;20489;-74
2021/09/19 01:30:47;;;;;;;0.00;0.00;;;16.50;93.00;;;;;;5036192;28;20053;-74
2021/09/19 01:33:13;;;;;;;0.00;0.00;;;16.50;93.00;;;;;;5035856;28;20433;-75
2021/09/19 01:35:38;;;;;;;0.00;0.00;;;16.40;93.10;;;;;;5036632;28;20044;-74
2021/09/19 01:38:04;;;;;;;0.00;0.00;;;16.50;93.20;;;;;;5035726;28;20057;-75
2021/09/19 01:40:30;;;;;;;0.00;0.00;;;16.40;93.30;;;;;;5035999;28;20033;-73
2021/09/19 01:42:57;;;;;;;0.00;0.00;;;16.40;93.40;;;;;;5034477;28;20029;-74
2021/09/19 01:45:23;;;;;;;0.00;0.00;;;16.40;93.60;;;;;;5035932;28;20026;-73
2021/09/19 01:47:49;;;;;;;0.00;0.00;;;16.40;93.80;;;;;;5036305;28;20033;-74
2021/09/19 01:50:15;;;;;;;0.00;0.00;;;16.40;93.90;;;;;;5036075;28;20025;-74
2021/09/19 01:52:41;;;;;;;0.00;0.00;;;16.40;94.00;;;;;;5035473;28;20032;-75
2021/09/19 01:55:08;;;;;;;0.00;0.00;;;16.40;94.60;;;;;;5035025;28;20048;-74
2021/09/19 01:57:33;;;;;;;0.00;0.00;;;16.50;94.80;;;;;;5035719;28;20045;-74
2021/09/19 01:59:59;;;;;;;0.00;0.00;;;16.60;94.80;;;;;;5035678;28;20109;-74
2021/09/19 02:02:25;;;;;;;0.82;0.82;;;16.70;94.70;;;;;;5035291;28;20476;-73
2021/09/19 02:04:54;;;;;;;0.52;0.52;;;16.80;94.50;;;;;;5034242;28;20079;-74
2021/09/19 02:07:20;;;;;;;1.15;1.05;;;16.80;94.20;;;;;;5035445;28;20133;-73
2021/09/19 02:09:46;;;;;;;2.60;2.40;;;16.80;94.00;;;;;;5033889;28;20029;-73
2021/09/19 02:12:14;;;;;;;1.55;1.45;;;16.80;93.80;;;;;;5035385;28;20083;-74
2021/09/19 02:14:41;;;;;;;2.35;2.15;;;16.80;93.70;;;;;;5034057;28;20037;-74
2021/09/19 02:17:07;;;;;;;2.40;2.20;;;16.80;93.60;;;;;;5035244;28;20475;-74
2021/09/19 02:19:33;;;;;;;1.38;1.27;;;16.70;93.50;;;;;;5035149;28;20025;-74
2021/09/19 02:21:59;;;;;;;0.80;0.80;;;16.70;93.70;;;;;;5035491;28;20108;-74
2021/09/19 02:24:24;;;;;;;0.40;0.35;;;16.70;93.80;;;;;;5050528;28;20450;-74
2021/09/19 02:26:50;;;;;;;0.08;0.03;;;16.70;94.00;;;;;;5033792;28;20033;-75
2021/09/19 02:29:16;;;;;;;0.00;0.00;;;16.80;94.10;;;;;;5035025;28;20143;-73
2021/09/19 02:31:42;;;;;;;0.00;0.00;;;16.80;94.10;;;;;;5034968;28;20079;-74
2021/09/19 02:34:07;;;;;;;0.00;0.00;;;16.80;94.30;;;;;;5035004;28;20061;-74
2021/09/19 02:36:33;;;;;;;0.00;0.00;;;16.90;94.20;;;;;;5035217;28;20025;-74
2021/09/19 02:38:59;;;;;;;0.00;0.00;;;16.90;93.90;;;;;;5033600;28;20449;-73
2021/09/19 02:41:25;;;;;;;0.00;0.00;;;17.00;93.80;;;;;;5035059;28;20108;-74
2021/09/19 02:43:52;;;;;;;0.00;0.00;;;17.00;93.50;;;;;;5034827;28;20029;-74
2021/09/19 02:46:18;;;;;;;0.00;0.00;;;17.10;93.20;;;;;;5035527;28;20030;-74
2021/09/19 02:48:43;;;;;;;0.00;0.00;;;17.10;92.70;;;;;;5035115;28;20468;-75
2021/09/19 02:51:09;;;;;;;0.00;0.00;;;17.10;92.40;;;;;;5034433;28;20029;-74
2021/09/19 02:53:35;;;;;;;0.00;0.00;;;17.10;91.80;;;;;;5034848;28;20048;-74
2021/09/19 02:56:00;;;;;;;0.00;0.00;;;17.10;91.50;;;;;;5034065;28;20033;-74
2021/09/19 02:58:26;;;;;;;0.00;0.00;;;17.10;91.10;;;;;;5033214;28;20370;-74
2021/09/19 03:00:52;;;;;;;0.00;0.00;;;17.00;90.60;;;;;;5034495;28;20021;-74
2021/09/19 03:03:17;;;;;;;0.00;0.00;;;17.00;90.40;;;;;;5033186;28;20029;-73
2021/09/19 03:05:43;;;;;;;0.00;0.00;;;16.90;90.20;;;;;;5034440;28;20025;-73
2021/09/19 03:08:09;;;;;;;0.00;0.00;;;16.80;90.00;;;;;;5034307;28;20486;-75
2021/09/19 03:10:36;;;;;;;0.00;0.00;;;16.80;90.00;;;;;;5034110;28;20057;-75
2021/09/19 03:13:02;;;;;;;0.00;0.00;;;16.80;90.20;;;;;;5034296;28;20362;-74
2021/09/19 03:15:28;;;;;;;0.00;0.00;;;16.80;89.80;;;;;;5033033;28;20026;-74
2021/09/19 03:17:54;;;;;;;0.00;0.00;;;16.80;89.50;;;;;;5033866;28;20030;-74
2021/09/19 03:20:20;;;;;;;0.00;0.00;;;16.80;89.20;;;;;;5034718;28;20061;-74
2021/09/19 03:22:46;;;;;;;0.00;0.00;;;16.80;89.00;;;;;;5034454;28;20025;-73
2021/09/19 03:25:13;;;;;;;0.00;0.00;;;16.80;88.70;;;;;;5033986;28;20472;-73
2021/09/19 03:27:39;;;;;;;0.00;0.00;;;16.80;88.20;;;;;;5034497;28;20065;-75
2021/09/19 03:30:07;;;;;;;0.00;0.00;;;16.80;88.10;;;;;;5033754;28;20026;-74
2021/09/19 03:32:32;;;;;;;0.00;0.00;;;16.80;87.90;;;;;;5034183;28;20025;-74
2021/09/19 03:34:58;;;;;;;0.00;0.00;;;16.80;87.60;;;;;;5032674;28;20026;-75
2021/09/19 03:37:24;;;;;;;0.00;0.00;;;16.80;87.20;;;;;;5033926;28;20029;-74
2021/09/19 03:39:50;;;;;;;0.00;0.00;;;16.90;87.00;;;;;;5033864;28;20033;-74
2021/09/19 03:42:16;;;;;;;0.00;0.00;;;16.90;86.80;;;;;;5033965;28;20033;-74
2021/09/19 03:44:42;;;;;;;0.00;0.00;;;16.90;86.70;;;;;;5033899;28;20078;-74
2021/09/19 03:47:08;;;;;;;0.00;0.00;;;16.90;86.60;;;;;;5034133;28;20037;-74
2021/09/19 03:49:34;;;;;;;0.00;0.00;;;16.90;86.60;;;;;;5033997;28;20105;-74
2021/09/19 03:51:59;;;;;;;0.00;0.00;;;16.90;86.40;;;;;;5049177;28;20030;-73
2021/09/19 03:54:25;;;;;;;0.00;0.00;;;16.80;86.00;;;;;;5033994;28;20037;-74
2021/09/19 03:56:51;;;;;;;0.00;0.00;;;16.80;85.80;;;;;;5033733;28;20492;-74
2021/09/19 03:59:17;;;;;;;0.00;0.00;;;16.70;85.90;;;;;;5033955;28;20470;-73
2021/09/19 04:01:43;;;;;;;0.00;0.00;;;16.70;86.10;;;;;;5033721;28;20036;-76
2021/09/19 04:04:09;;;;;;;0.00;0.00;;;16.70;86.10;;;;;;5033304;28;20064;-73
2021/09/19 04:06:35;;;;;;;0.00;0.00;;;16.70;86.00;;;;;;5035038;28;20061;-75
2021/09/19 04:09:00;;;;;;;0.00;0.00;;;16.80;86.10;;;;;;5037618;28;20041;-74
2021/09/19 04:11:26;;;;;;;0.00;0.00;;;16.80;86.00;;;;;;5037754;28;20089;-74
2021/09/19 04:13:52;;;;;;;0.00;0.00;;;16.90;85.80;;;;;;5037628;28;20021;-75
2021/09/19 04:16:18;;;;;;;0.00;0.00;;;17.00;85.40;;;;;;5037156;28;20104;-74
2021/09/19 04:18:44;;;;;;;0.00;0.00;;;17.00;85.40;;;;;;5037353;28;20457;-75
2021/09/19 04:21:09;;;;;;;0.00;0.00;;;17.10;85.20;;;;;;5037032;28;20057;-74
2021/09/19 04:23:35;;;;;;;0.00;0.00;;;17.20;85.00;;;;;;5037092;28;20409;-75
2021/09/19 04:26:01;;;;;;;0.00;0.00;;;17.30;84.50;;;;;;5037394;28;20030;-75
2021/09/19 04:28:27;;;;;;;0.00;0.00;;;17.40;83.90;;;;;;5035639;28;20092;-75
2021/09/19 04:30:52;;;;;;;0.00;0.00;;;17.40;83.40;;;;;;5037186;28;20029;-75
2021/09/19 04:33:18;;;;;;;0.00;0.00;;;17.40;83.20;;;;;;5036799;28;20029;-75
2021/09/19 04:35:44;;;;;;;0.00;0.00;;;17.40;82.70;;;;;;5036914;28;20060;-75
2021/09/19 04:38:10;;;;;;;0.00;0.00;;;17.40;82.40;;;;;;5035748;28;20029;-79
2021/09/19 04:40:36;;;;;;;0.00;0.00;;;17.40;82.00;;;;;;5037157;28;20056;-75
2021/09/19 04:43:03;;;;;;;0.00;0.00;;;17.40;81.80;;;;;;5036715;28;20034;-76
2021/09/19 04:45:28;;;;;;;0.00;0.00;;;17.50;82.10;;;;;;5036703;28;20029;-74
2021/09/19 04:47:54;;;;;;;0.00;0.00;;;17.50;81.00;;;;;;5036734;28;20044;-75
2021/09/19 04:50:20;;;;;;;0.00;0.00;;;17.60;80.70;;;;;;5036964;28;20033;-75
2021/09/19 04:52:45;;;;;;;0.00;0.00;;;17.60;80.70;;;;;;5036498;28;20112;-74
2021/09/19 04:55:11;;;;;;;0.00;0.00;;;17.70;80.60;;;;;;5037165;28;20130;-76
2021/09/19 04:57:37;;;;;;;0.00;0.00;;;17.70;80.30;;;;;;5036178;28;20060;-74
2021/09/19 05:00:04;;;;;;;0.00;0.00;;;17.70;79.80;;;;;;5036773;28;20028;-75
2021/09/19 05:02:31;;;;;;;0.00;0.00;;;17.80;79.80;;;;;;5035099;28;20036;-75
2021/09/19 05:04:58;;;;;;;0.00;0.00;;;17.80;79.60;;;;;;5036460;28;20030;-75
2021/09/19 05:07:23;;;;;;;0.00;0.00;;;17.80;79.50;;;;;;5037149;28;20046;-74
2021/09/19 05:09:49;;;;;;;0.00;0.00;;;17.90;79.30;;;;;;5036628;28;20025;-74
2021/09/19 05:12:15;;;;;;;0.00;0.00;;;17.90;79.00;;;;;;5036165;28;20021;-73
2021/09/19 05:14:40;;;;;;;0.00;0.00;;;18.00;78.90;;;;;;5036229;28;20052;-74
2021/09/19 05:17:06;;;;;;;0.00;0.00;;;18.00;78.80;;;;;;5036755;28;20446;-75
2021/09/19 05:19:32;;;;;;;0.00;0.00;;;18.10;78.80;;;;;;5035806;28;20034;-75
2021/09/19 05:22:03;;;;;;;0.00;0.00;;;18.20;78.20;;;;;;5036406;28;20417;-74
2021/09/19 05:24:31;;;;;;;0.00;0.00;;;18.40;77.60;;;;;;5036075;28;20033;-75
2021/09/19 05:26:57;;;;;;;0.00;0.00;;;18.50;77.40;;;;;;5035908;28;20034;-74
2021/09/19 05:29:22;;;;;;;0.00;0.00;;;18.60;77.00;;;;;;5036455;28;20525;-74
2021/09/19 05:31:48;;;;;;;0.00;0.00;;;18.80;76.70;;;;;;5036257;28;20067;-74
2021/09/19 05:34:18;;;;;;;0.00;0.00;;;18.90;76.10;;;;;;5036090;28;20025;-75
2021/09/19 05:36:53;;;;;;;0.00;0.00;;;19.10;74.90;;;;;;5036304;28;20029;-74
2021/09/19 05:39:20;;;;;;;0.00;0.00;;;19.20;73.80;;;;;;5034308;28;20056;-74
2021/09/19 05:41:45;;;;;;;0.00;0.00;;;19.40;73.30;;;;;;5036241;28;20025;-74
2021/09/19 05:44:11;;;;;;;0.00;0.00;;;19.50;72.70;;;;;;5035850;28;20032;-75
2021/09/19 05:46:37;;;;;;;0.00;0.00;;;19.70;71.90;;;;;;5036142;28;20026;-74
2021/09/19 05:49:02;;;;;;;0.00;0.00;;;19.80;71.50;;;;;;5035727;28;20041;-74
2021/09/19 05:51:28;;;;;;;0.00;0.00;;;19.80;70.90;;;;;;5035742;28;20024;-75
2021/09/19 05:53:54;;;;;;;0.00;0.00;;;19.80;70.70;;;;;;5035425;28;20025;-76
2021/09/19 05:56:19;;;;;;;0.00;0.00;;;19.80;70.70;;;;;;5035564;28;20053;-74
2021/09/19 05:58:45;;;;;;;0.00;0.00;;;19.90;70.60;;;;;;5035695;28;20040;-74
2021/09/19 06:01:11;;;;;;;0.00;0.00;;;20.00;70.40;;;;;;5035598;28;20097;-76
2021/09/19 06:03:38;;;;;;;0.00;0.00;;;20.10;70.10;;;;;;5035842;28;20457;-75
2021/09/19 06:06:04;;;;;;;0.00;0.00;;;20.30;69.90;;;;;;5035249;28;20430;-75
2021/09/19 06:08:30;;;;;;;0.00;0.00;;;20.40;69.70;;;;;;5035134;28;20508;-75
2021/09/19 06:10:55;;;;;;;0.00;0.00;;;20.50;69.60;;;;;;5035719;28;20061;-75
2021/09/19 06:13:21;;;;;;;0.00;0.00;;;20.60;69.90;;;;;;5035403;28;20060;-76
2021/09/19 06:15:47;;;;;;;0.00;0.00;;;20.60;69.00;;;;;;5035077;28;20381;-74
2021/09/19 06:18:13;;;;;;;0.00;0.00;;;20.50;69.00;;;;;;5050345;28;20034;-74
2021/09/19 06:20:39;;;;;;;0.00;0.00;;;20.50;69.20;;;;;;5035019;28;20060;-75
2021/09/19 06:23:05;;;;;;;0.00;0.00;;;20.40;69.50;;;;;;5035523;28;20121;-75
2021/09/19 06:25:31;;;;;;;0.00;0.00;;;20.30;69.70;;;;;;5034711;28;20462;-76
2021/09/19 06:27:56;;;;;;;0.00;0.00;;;20.40;69.90;;;;;;5050167;28;20040;-74
2021/09/19 06:30:22;;;;;;;0.00;0.00;;;20.40;69.50;;;;;;5034039;28;20100;-75
2021/09/19 06:32:50;;;;;;;0.00;0.00;;;20.40;69.20;;;;;;5035517;28;20029;-73
2021/09/19 06:35:15;;;;;;;0.00;0.00;;;20.40;69.30;;;;;;5050159;28;20458;-75
2021/09/19 06:37:41;;;;;;;0.00;0.00;;;20.40;69.00;;;;;;5034600;28;20025;-75
2021/09/19 06:40:10;;;;;;;0.00;0.00;;;20.40;68.70;;;;;;5034436;28;20033;-74
2021/09/19 06:42:35;;;;;;;0.00;0.00;;;20.30;68.70;;;;;;5035358;28;20032;-75
2021/09/19 06:45:01;;;;;;;0.00;0.00;;;20.30;68.70;;;;;;5035259;28;20030;-75
2021/09/19 06:47:27;;;;;;;0.00;0.00;;;20.20;69.00;;;;;;5049655;28;20385;-74
2021/09/19 06:49:53;;;;;;;0.00;0.00;;;20.10;69.00;;;;;;5035153;28;20021;-75
2021/09/19 06:52:19;;;;;;;0.00;0.00;;;20.10;69.10;;;;;;5034620;28;20037;-77
2021/09/19 06:54:45;;;;;;;0.00;0.00;;;20.10;68.50;;;;;;5034615;28;20036;-75
2021/09/19 06:57:11;;;;;;;0.00;0.00;;;20.10;68.90;;;;;;5034555;28;20057;-75
2021/09/19 06:59:37;;;;;;;0.00;0.00;;;20.10;68.80;;;;;;5034433;28;20029;-75
2021/09/19 07:02:04;;;;;;;0.00;0.00;;;20.20;68.40;;;;;;5034148;28;20025;-75
2021/09/19 07:04:29;;;;;;;0.00;0.00;;;20.30;67.80;;;;;;5034378;28;20187;-76
2021/09/19 07:06:55;;;;;;;0.00;0.00;;;20.40;67.50;;;;;;5034844;28;20029;-75
2021/09/19 07:09:21;;;;;;;0.00;0.00;;;20.50;67.50;;;;;;5034341;28;20029;-74
2021/09/19 07:11:47;;;;;;;0.00;0.00;;;20.50;67.20;;;;;;5034332;28;20021;-75
2021/09/19 07:14:13;;;;;;;0.00;0.00;;;20.60;66.90;;;;;;5033056;28;20354;-75
2021/09/19 07:16:38;;;;;;;0.00;0.00;;;20.60;66.70;;;;;;5033945;28;20104;-75
2021/09/19 07:19:04;;;;;;;0.00;0.00;;;20.60;66.70;;;;;;5034140;28;20100;-75
2021/09/19 07:21:30;;;;;;;0.00;0.00;;;20.80;66.80;;;;;;5034134;28;20033;-75
2021/09/19 07:23:55;;;;;;;0.00;0.00;;;20.90;66.60;;;;;;5033823;28;20036;-76
2021/09/19 07:26:21;;;;;;;0.00;0.00;;;21.00;66.60;;;;;;5033826;28;20025;-75
2021/09/19 07:28:48;;;;;;;0.00;0.00;;;21.20;66.10;;;;;;5032469;28;20503;-76
2021/09/19 07:31:14;;;;;;;0.00;0.00;;;21.40;65.30;;;;;;5049055;28;20034;-75
2021/09/19 07:33:39;;;;;;;0.00;0.00;;;21.60;64.80;;;;;;5048982;28;20026;-75
2021/09/19 07:36:07;;;;;;;0.00;0.00;;;22.00;64.40;;;;;;5032707;28;20025;-74
2021/09/19 07:38:33;;;;;;;0.00;0.00;;;22.30;63.20;;;;;;5032519;28;20032;-75
2021/09/19 07:41:00;;;;;;;0.00;0.00;;;22.30;61.80;;;;;;5033604;28;20036;-76
2021/09/19 07:43:26;;;;;;;0.00;0.00;;;22.10;62.20;;;;;;5033948;28;20026;-74
2021/09/19 07:45:53;;;;;;;0.00;0.00;;;22.00;62.60;;;;;;5033835;28;20052;-76
2021/09/19 07:48:21;;;;;;;0.00;0.00;;;22.10;62.50;;;;;;5034171;28;20038;-74
2021/09/19 07:50:47;;;;;;;0.00;0.00;;;22.30;62.40;;;;;;5033791;28;20026;-76
2021/09/19 07:53:13;;;;;;;0.00;0.00;;;22.40;62.00;;;;;;5033690;28;20026;-74
2021/09/19 07:55:39;;;;;;;0.00;0.00;;;22.40;61.30;;;;;;5034186;28;20394;-75
2021/09/19 07:58:05;;;;;;;0.00;0.00;;;22.30;61.40;;;;;;5034067;28;20056;-75
2021/09/19 08:00:30;;;;;;;0.00;0.00;;;22.30;61.50;;;;;;5033689;28;20111;-75
2021/09/19 08:02:56;;;;;;;0.00;0.00;;;22.30;61.50;;;;;;5034138;28;20030;-75
2021/09/19 08:05:24;;;;;;;0.00;0.00;;;22.40;61.50;;;;;;5048812;28;20108;-79
2021/09/19 08:07:50;;;;;;;0.00;0.00;;;22.30;61.60;;;;;;5032265;28;20033;-74
2021/09/19 08:10:17;;;;;;;0.00;0.00;;;22.40;61.40;;;;;;5033449;28;20052;-76
2021/09/19 08:12:46;;;;;;;0.00;0.00;;;22.30;61.10;;;;;;5034500;28;20366;-76
2021/09/19 08:15:18;;;;;;;0.00;0.00;;;22.30;61.10;;;;;;5033145;28;20121;-76
2021/09/19 08:17:47;;;;;;;0.00;0.00;;;22.20;61.30;;;;;;5033500;28;20060;-75
2021/09/19 08:20:17;;;;;;;0.00;0.00;;;22.00;61.50;;;;;;5033090;28;20025;-75
2021/09/19 08:22:44;;;;;;;0.00;0.00;;;22.00;62.10;;;;;;5033670;28;20485;-75
2021/09/19 08:25:13;;;;;;;0.00;0.00;;;22.00;61.80;;;;;;5033619;28;20021;-76
2021/09/19 08:27:40;;;;;;;0.00;0.00;;;22.20;61.80;;;;;;5031788;28;20436;-74
2021/09/19 08:30:08;;;;;;;0.00;0.00;;;22.50;60.80;;;;;;5033319;28;20030;-76
2021/09/19 08:32:34;;;;;;;0.00;0.00;;;22.70;59.80;;;;;;5033247;28;20401;-75
2021/09/19 08:35:00;;;;;;;0.00;0.00;;;22.70;59.40;;;;;;5033142;28;20041;-75
2021/09/19 08:37:25;;;;;;;0.00;0.00;;;22.40;59.10;;;;;;5031650;28;20030;-75
2021/09/19 08:39:51;;;;;;;0.00;0.00;;;22.20;59.70;;;;;;5032919;28;20030;-76
2021/09/19 08:42:17;;;;;;;0.00;0.00;;;22.00;60.40;;;;;;5033712;28;20032;-75
2021/09/19 08:44:43;;;;;;;0.00;0.00;;;22.30;61.40;;;;;;5033149;28;20393;-76
2021/09/19 08:47:12;;;;;;;0.00;0.00;;;23.00;60.80;;;;;;5031839;28;20382;-75
2021/09/19 08:49:38;;;;;;;0.00;0.00;;;24.50;58.70;;;;;;5031922;28;20381;-74
2021/09/19 08:52:04;;;;;;;0.00;0.00;;;26.10;56.70;;;;;;5033325;28;20032;-74
2021/09/19 08:54:29;;;;;;;0.00;0.00;;;27.40;54.50;;;;;;5035899;28;20025;-75
2021/09/19 08:56:55;;;;;;;0.00;0.00;;;28.60;52.50;;;;;;5036907;28;20053;-76
2021/09/19 08:59:21;;;;;;;0.00;0.00;;;29.60;50.10;;;;;;5037299;28;20083;-76
2021/09/19 09:01:59;;;;;;;0.00;0.00;;;30.10;48.40;;;;;;5035371;28;20030;-75
2021/09/19 09:04:25;;;;;;;0.00;0.00;;;30.70;47.50;;;;;;5036914;28;20083;-75
2021/09/19 09:06:52;;;;;;;0.00;0.00;;;31.50;47.40;;;;;;5037025;28;20033;-76
2021/09/19 09:09:27;;;;;;;0.00;0.00;;;32.00;46.30;;;;;;5036628;28;20041;-75
2021/09/19 09:12:01;;;;;;;0.00;0.00;;;32.60;45.50;;;;;;5036240;28;20026;-74
2021/09/19 09:14:27;;;;;;;0.00;0.00;;;33.40;44.70;;;;;;5036918;28;20105;-75
2021/09/19 09:17:08;;;;;;;0.00;0.00;;;34.10;45.00;;;;;;5036525;28;20112;-75
2021/09/19 09:19:40;;;;;;;0.00;0.00;;;34.90;43.40;;;;;;5036513;28;20056;-74
2021/09/19 09:22:09;;;;;;;0.00;0.00;;;35.00;42.10;;;;;;5050230;28;20034;-74
2021/09/19 09:24:39;;;;;;;0.00;0.00;;;34.10;42.00;;;;;;5036157;28;20026;-75
2021/09/19 09:27:23;;;;;;;0.00;0.00;;;32.90;42.30;;;;;;5036051;28;20385;-74
2021/09/19 09:30:15;;;;;;;0.00;0.00;;;31.70;43.00;;;;;;5036101;28;20512;-74
2021/09/19 09:32:59;;;;;;;0.00;0.00;;;30.40;43.90;;;;;;5036039;28;20028;-75
2021/09/19 09:35:45;;;;;;;0.00;0.00;;;29.50;45.10;;;;;;5035681;28;20057;-76
2021/09/19 09:38:18;;;;;;;0.00;0.00;;;29.30;46.00;;;;;;5034891;28;20042;-75
2021/09/19 09:40:45;;;;;;;0.00;0.00;;;30.10;45.70;;;;;;5036740;28;20025;-76
2021/09/19 09:43:13;;;;;;;0.00;0.00;;;31.30;45.60;;;;;;5034809;28;20087;-75
2021/09/19 09:45:52;;;;;;;0.00;0.00;;;32.50;44.10;;;;;;5035415;28;20029;-75
2021/09/19 09:48:26;;;;;;;0.00;0.00;;;32.90;41.90;;;;;;5034679;28;20041;-75
2021/09/19 09:50:56;;;;;;;0.00;0.00;;;32.00;41.80;;;;;;5036450;28;20355;-74
2021/09/19 09:53:25;;;;;;;0.00;0.00;;;30.80;42.70;;;;;;5035993;28;20108;-74
2021/09/19 09:55:54;;;;;;;0.00;0.00;;;30.10;43.90;;;;;;5036001;28;20022;-75
2021/09/19 09:58:24;;;;;;;0.00;0.00;;;30.90;44.70;;;;;;5035772;28;20119;-75
2021/09/19 10:00:53;;;;;;;0.00;0.00;;;32.20;43.80;;;;;;5034471;28;20033;-75
2021/09/19 10:03:19;;;;;;;0.00;0.00;;;33.30;42.70;;;;;;5035660;28;20017;-75
2021/09/19 10:05:45;;;;;;;0.00;0.00;;;34.10;41.40;;;;;;5034309;28;20381;-76
2021/09/19 10:08:13;;;;;;;0.00;0.00;;;34.40;40.40;;;;;;5035467;28;20038;-76
2021/09/19 10:10:43;;;;;;;0.00;0.00;;;33.70;39.70;;;;;;5035683;28;20116;-74
2021/09/19 10:13:13;;;;;;;0.00;0.00;;;33.00;40.40;;;;;;5035279;28;20116;-75
2021/09/19 10:15:41;;;;;;;0.00;0.00;;;32.90;40.80;;;;;;5050275;28;20056;-75
2021/09/19 10:18:09;;;;;;;0.00;0.00;;;32.40;41.00;;;;;;5050894;28;20028;-75
2021/09/19 10:20:40;;;;;;;0.00;0.00;;;31.40;41.70;;;;;;5035095;28;20052;-75
2021/09/19 10:23:08;;;;;;;0.00;0.00;;;30.50;42.20;;;;;;5035344;28;20025;-76
2021/09/19 10:26:00;;;;;;;0.00;0.00;;;30.50;43.00;;;;;;5035250;28;20100;-75
2021/09/19 10:28:26;;;;;;;0.00;0.00;;;31.60;42.80;;;;;;5033888;28;20083;-74
2021/09/19 10:31:11;;;;;;;0.00;0.00;;;32.10;41.50;;;;;;5034779;28;20358;-75
2021/09/19 10:33:50;;;;;;;0.00;0.00;;;31.60;41.30;;;;;;5035015;28;20025;-76
2021/09/19 10:36:45;;;;;;;0.00;0.00;;;31.10;40.90;;;;;;5035079;28;20025;-75
2021/09/19 10:39:14;;;;;;;;;;;30.30;41.30;;;;;;5035948;28;20035;-74
2021/09/19 10:42:16;;;;;;;0.00;0.00;;;29.60;42.00;;;;;;5033652;28;19937;-75
2021/09/19 10:44:44;;;;;;;0.00;0.00;;;28.80;42.50;;;;;;5033298;28;20033;-75
2021/09/19 10:47:26;;;;;;;0.00;0.00;;;28.20;43.40;;;;;;5034566;28;20033;-76
2021/09/19 10:50:10;;;;;;;0.00;0.00;;;27.50;44.10;;;;;;5034907;28;20088;-74
2021/09/19 10:52:41;;;;;;;0.00;0.00;;;26.80;45.10;;;;;;5034373;28;20030;-76
2021/09/19 10:55:23;;;;;;;0.00;0.00;;;26.30;45.50;;;;;;5034829;28;20029;-75
2021/09/19 10:58:10;;;;;;;0.00;0.00;;;25.90;46.30;;;;;;5034535;28;20111;-75
2021/09/19 11:00:36;;;;;;;0.00;0.00;;;25.90;46.80;;;;;;5034542;28;20135;-75
2021/09/19 11:03:11;;;;;;;0.00;0.00;;;25.80;46.90;;;;;;5034384;28;20036;-76
2021/09/19 11:05:38;;;;;;;0.00;0.00;;;25.70;47.40;;;;;;5033119;28;20540;-76
2021/09/19 11:08:24;;;;;;;0.00;0.00;;;25.80;47.70;;;;;;5034218;28;20030;-75
2021/09/19 11:10:50;;;;;;;0.00;0.00;;;27.00;47.50;;;;;;5033516;28;20069;-76
2021/09/19 11:13:35;;;;;;;0.00;0.00;;;28.80;46.50;;;;;;5034661;28;20021;-78
2021/09/19 11:16:04;;;;;;;0.00;0.00;;;30.70;44.00;;;;;;5033842;28;20041;-75
2021/09/19 11:19:10;;;;;;;0.00;0.00;;;31.70;42.10;;;;;;5034090;28;20037;-75
2021/09/19 11:21:56;;;;;;;0.00;0.00;;;32.30;40.50;;;;;;5033660;28;20029;-77
2021/09/19 11:24:24;;;;;;;0.00;0.00;;;32.30;40.20;;;;;;5033880;28;20026;-76
2021/09/19 11:26:54;;;;;;;0.00;0.00;;;32.80;40.00;;;;;;5049404;28;20072;-74
2021/09/19 11:29:25;;;;;;;0.00;0.00;;;32.50;39.10;;;;;;5034497;28;20061;-75
2021/09/19 11:31:53;;;;;;;0.00;0.00;;;31.70;38.60;;;;;;5034409;28;20021;-76
2021/09/19 11:34:25;;;;;;;0.00;0.00;;;32.00;39.40;;;;;;5034220;28;20108;-77
2021/09/19 11:36:56;;;;;;;0.00;0.00;;;32.70;38.80;;;;;;5033912;28;20030;-75
2021/09/19 11:39:22;;;;;;;0.00;0.00;;;32.40;38.40;;;;;;5033437;28;20450;-75
2021/09/19 11:41:50;;;;;;;0.00;0.00;;;31.60;38.80;;;;;;5033673;28;20025;-75
2021/09/19 11:44:18;;;;;;;0.00;0.00;;;31.00;38.90;;;;;;5034150;28;20029;-75
2021/09/19 11:46:48;;;;;;;0.00;0.00;;;30.00;39.50;;;;;;5032685;28;20033;-75
2021/09/19 11:49:14;;;;;;;0.00;0.00;;;29.00;40.50;;;;;;5032630;28;20029;-74
2021/09/19 11:51:41;;;;;;;0.00;0.00;;;28.20;41.60;;;;;;5032633;28;20076;-75
2021/09/19 11:54:10;;;;;;;0.00;0.00;;;27.80;42.50;;;;;;5034129;28;20026;-75
2021/09/19 11:56:37;;;;;;;0.00;0.00;;;27.60;43.00;;;;;;5032377;28;20055;-75
2021/09/19 11:59:04;;;;;;;0.00;0.00;;;27.30;43.40;;;;;;5034726;28;20029;-75
2021/09/19 12:01:30;;;;;;;0.00;0.00;;;27.00;44.10;;;;;;5033924;28;20381;-75
2021/09/19 12:04:04;;;;;;;0.00;0.00;;;26.70;44.30;;;;;;5033842;28;20021;-75
2021/09/19 12:06:31;;;;;;;0.00;0.00;;;26.20;44.30;;;;;;5032012;28;20178;-76
2021/09/19 12:08:57;;;;;;;0.00;0.00;;;25.80;45.00;;;;;;5032900;28;20358;-74
2021/09/19 12:11:38;;;;;;;0.00;0.00;;;25.90;45.70;;;;;;5033779;28;20033;-76
2021/09/19 12:14:13;;;;;;;0.00;0.00;;;27.30;45.90;;;;;;5032491;28;20033;-76
2021/09/19 12:16:39;;;;;;;0.00;0.00;;;29.00;45.80;;;;;;5048617;28;20021;-77
2021/09/19 12:19:19;;;;;;;0.00;0.00;;;30.60;44.20;;;;;;5033693;28;20369;-77
2021/09/19 12:21:58;;;;;;;0.00;0.00;;;32.10;41.30;;;;;;5032264;28;20030;-76
2021/09/19 12:24:26;;;;;;;0.00;0.00;;;33.20;40.00;;;;;;5033699;28;20101;-77
2021/09/19 12:27:07;;;;;;;0.00;0.00;;;33.30;39.10;;;;;;5033753;28;20022;-75
2021/09/19 12:29:33;;;;;;;0.00;0.00;;;33.10;38.80;;;;;;5036030;28;20042;-76
2021/09/19 12:32:01;;;;;;;0.00;0.00;;;33.70;39.00;;;;;;5037564;28;20091;-76
2021/09/19 12:34:27;;;;;;;0.00;0.00;;;33.70;38.30;;;;;;5037289;28;20029;-74
2021/09/19 12:36:56;;;;;;;0.00;0.00;;;32.90;38.20;;;;;;5037478;28;20536;-74
2021/09/19 12:39:31;;;;;;;0.00;0.00;;;31.80;38.50;;;;;;5037368;28;20072;-76
2021/09/19 12:42:06;;;;;;;0.00;0.00;;;30.60;39.60;;;;;;5036856;28;20117;-75
2021/09/19 12:44:37;;;;;;;0.00;0.00;;;29.50;40.90;;;;;;5035821;28;20108;-75
2021/09/19 12:47:08;;;;;;;0.00;0.00;;;28.70;41.90;;;;;;5036632;28;20021;-74
2021/09/19 12:49:46;;;;;;;0.00;0.00;;;28.00;42.70;;;;;;5037203;28;20021;-76
2021/09/19 12:52:17;;;;;;;0.00;0.00;;;27.40;43.70;;;;;;5036172;28;20088;-76